sensor_id;sensor_type;location;lat;lon;timestamp;P1;durP1;ratioP1;P2;durP2;ratioP2
77573;SDS011;66710;48.868;9.080;2023-09-30T00:01:40;4.53;;;1.98;;
77573;SDS011;66710;48.868;9.080;2023-09-30T00:04:06;3.60;;;1.85;;
77573;SDS011;66710;48.868;9.080;2023-09-30T00:06:32;4.70;;;1.92;;
77573;SDS011;66710;48.868;9.080;2023-09-30T00:08:57;4.40;;;2.00;;
77573;SDS011;66710;48.868;9.080;2023-09-30T00:11:23;6.00;;;2.08;;
77573;SDS011;66710;48.868;9.080;2023-09-30T00:13:48;3.83;;;1.85;;
77573;SDS011;66710;48.868;9.080;2023-09-30T00:16:14;5.47;;;2.22;;
77573;SDS011;66710;48.868;9.080;2023-09-30T00:18:42;5.22;;;2.15;;
77573;SDS011;66710;48.868;9.080;2023-09-30T00:21:07;5.80;;;2.10;;
77573;SDS011;66710;48.868;9.080;2023-09-30T00:23:32;4.55;;;2.28;;
77573;SDS011;66710;48.868;9.080;2023-09-30T00:25:58;4.30;;;2.30;;
77573;SDS011;66710;48.868;9.080;2023-09-30T00:28:25;4.32;;;2.10;;
77573;SDS011;66710;48.868;9.080;2023-09-30T00:30:50;4.60;;;2.28;;
77573;SDS011;66710;48.868;9.080;2023-09-30T00:33:15;4.50;;;2.20;;
77573;SDS011;66710;48.868;9.080;2023-09-30T00:35:40;4.78;;;2.15;;
77573;SDS011;66710;48.868;9.080;2023-09-30T00:38:06;4.20;;;2.33;;
77573;SDS011;66710;48.868;9.080;2023-09-30T00:40:31;5.72;;;2.40;;
77573;SDS011;66710;48.868;9.080;2023-09-30T00:42:57;4.22;;;2.45;;
77573;SDS011;66710;48.868;9.080;2023-09-30T00:45:22;4.50;;;2.20;;
77573;SDS011;66710;48.868;9.080;2023-09-30T00:47:48;4.32;;;2.50;;
77573;SDS011;66710;48.868;9.080;2023-09-30T00:50:13;5.32;;;2.30;;
77573;SDS011;66710;48.868;9.080;2023-09-30T00:52:39;6.15;;;2.20;;
77573;SDS011;66710;48.868;9.080;2023-09-30T00:55:05;5.45;;;2.53;;
77573;SDS011;66710;48.868;9.080;2023-09-30T00:57:31;4.30;;;2.42;;
77573;SDS011;66710;48.868;9.080;2023-09-30T00:59:58;5.57;;;2.80;;
77573;SDS011;66710;48.868;9.080;2023-09-30T01:02:26;4.63;;;2.33;;
77573;SDS011;66710;48.868;9.080;2023-09-30T01:04:51;4.78;;;2.50;;
77573;SDS011;66710;48.868;9.080;2023-09-30T01:07:17;4.45;;;2.30;;
77573;SDS011;66710;48.868;9.080;2023-09-30T01:09:42;6.30;;;2.42;;
77573;SDS011;66710;48.868;9.080;2023-09-30T01:12:08;4.68;;;2.70;;
77573;SDS011;66710;48.868;9.080;2023-09-30T01:14:34;5.75;;;2.60;;
77573;SDS011;66710;48.868;9.080;2023-09-30T01:17:01;7.50;;;3.17;;
77573;SDS011;66710;48.868;9.080;2023-09-30T01:19:27;5.35;;;2.60;;
77573;SDS011;66710;48.868;9.080;2023-09-30T01:21:54;5.07;;;2.60;;
77573;SDS011;66710;48.868;9.080;2023-09-30T01:24:23;6.10;;;3.17;;
77573;SDS011;66710;48.868;9.080;2023-09-30T01:26:49;5.30;;;2.78;;
77573;SDS011;66710;48.868;9.080;2023-09-30T01:29:15;5.53;;;2.55;;
77573;SDS011;66710;48.868;9.080;2023-09-30T01:31:40;5.68;;;2.90;;
77573;SDS011;66710;48.868;9.080;2023-09-30T01:34:05;5.70;;;2.90;;
77573;SDS011;66710;48.868;9.080;2023-09-30T01:36:31;7.50;;;3.20;;
77573;SDS011;66710;48.868;9.080;2023-09-30T01:38:57;5.97;;;2.80;;
77573;SDS011;66710;48.868;9.080;2023-09-30T01:41:22;5.25;;;2.85;;
77573;SDS011;66710;48.868;9.080;2023-09-30T01:43:48;5.70;;;3.30;;
77573;SDS011;66710;48.868;9.080;2023-09-30T01:46:13;6.38;;;3.10;;
77573;SDS011;66710;48.868;9.080;2023-09-30T01:48:39;7.38;;;3.17;;
77573;SDS011;66710;48.868;9.080;2023-09-30T01:51:04;4.72;;;2.90;;
77573;SDS011;66710;48.868;9.080;2023-09-30T01:53:29;5.15;;;2.90;;
77573;SDS011;66710;48.868;9.080;2023-09-30T01:55:54;7.38;;;3.92;;
77573;SDS011;66710;48.868;9.080;2023-09-30T01:58:20;7.22;;;3.05;;
77573;SDS011;66710;48.868;9.080;2023-09-30T02:00:45;6.82;;;3.10;;
77573;SDS011;66710;48.868;9.080;2023-09-30T02:03:10;7.78;;;3.60;;
77573;SDS011;66710;48.868;9.080;2023-09-30T02:05:36;5.70;;;3.10;;
77573;SDS011;66710;48.868;9.080;2023-09-30T02:08:03;6.25;;;3.38;;
77573;SDS011;66710;48.868;9.080;2023-09-30T02:10:31;9.20;;;3.97;;
77573;SDS011;66710;48.868;9.080;2023-09-30T02:12:58;5.75;;;3.38;;
77573;SDS011;66710;48.868;9.080;2023-09-30T02:15:24;6.43;;;3.53;;
77573;SDS011;66710;48.868;9.080;2023-09-30T02:17:50;6.97;;;3.30;;
77573;SDS011;66710;48.868;9.080;2023-09-30T02:20:16;5.13;;;3.50;;
77573;SDS011;66710;48.868;9.080;2023-09-30T02:22:44;7.22;;;3.50;;
77573;SDS011;66710;48.868;9.080;2023-09-30T02:25:10;7.13;;;3.42;;
77573;SDS011;66710;48.868;9.080;2023-09-30T02:27:37;6.88;;;3.65;;
77573;SDS011;66710;48.868;9.080;2023-09-30T02:30:03;6.38;;;3.90;;
77573;SDS011;66710;48.868;9.080;2023-09-30T02:32:28;8.18;;;3.65;;
77573;SDS011;66710;48.868;9.080;2023-09-30T02:34:54;12.10;;;4.13;;
77573;SDS011;66710;48.868;9.080;2023-09-30T02:37:19;6.38;;;3.50;;
77573;SDS011;66710;48.868;9.080;2023-09-30T02:39:44;6.38;;;3.70;;
77573;SDS011;66710;48.868;9.080;2023-09-30T02:42:10;6.50;;;3.63;;
77573;SDS011;66710;48.868;9.080;2023-09-30T02:44:35;6.78;;;3.60;;
77573;SDS011;66710;48.868;9.080;2023-09-30T02:47:00;8.75;;;4.35;;
77573;SDS011;66710;48.868;9.080;2023-09-30T02:49:26;7.45;;;3.78;;
77573;SDS011;66710;48.868;9.080;2023-09-30T02:51:51;6.65;;;3.65;;
77573;SDS011;66710;48.868;9.080;2023-09-30T02:54:16;7.78;;;4.13;;
77573;SDS011;66710;48.868;9.080;2023-09-30T02:56:41;7.25;;;3.60;;
77573;SDS011;66710;48.868;9.080;2023-09-30T02:59:07;8.27;;;3.85;;
77573;SDS011;66710;48.868;9.080;2023-09-30T03:01:33;8.02;;;4.03;;
77573;SDS011;66710;48.868;9.080;2023-09-30T03:03:59;7.50;;;3.72;;
77573;SDS011;66710;48.868;9.080;2023-09-30T03:06:24;8.13;;;3.50;;
77573;SDS011;66710;48.868;9.080;2023-09-30T03:08:50;6.93;;;3.67;;
77573;SDS011;66710;48.868;9.080;2023-09-30T03:11:16;6.45;;;3.40;;
77573;SDS011;66710;48.868;9.080;2023-09-30T03:13:43;5.57;;;3.35;;
77573;SDS011;66710;48.868;9.080;2023-09-30T03:16:09;6.03;;;3.72;;
77573;SDS011;66710;48.868;9.080;2023-09-30T03:18:34;8.35;;;3.70;;
77573;SDS011;66710;48.868;9.080;2023-09-30T03:21:00;7.75;;;3.78;;
77573;SDS011;66710;48.868;9.080;2023-09-30T03:23:29;6.88;;;3.50;;
77573;SDS011;66710;48.868;9.080;2023-09-30T03:25:58;6.45;;;3.67;;
77573;SDS011;66710;48.868;9.080;2023-09-30T03:28:24;7.68;;;3.55;;
77573;SDS011;66710;48.868;9.080;2023-09-30T03:30:50;8.45;;;3.92;;
77573;SDS011;66710;48.868;9.080;2023-09-30T03:33:16;7.03;;;3.40;;
77573;SDS011;66710;48.868;9.080;2023-09-30T03:35:42;6.65;;;3.60;;
77573;SDS011;66710;48.868;9.080;2023-09-30T03:38:07;6.70;;;3.70;;
77573;SDS011;66710;48.868;9.080;2023-09-30T03:40:34;5.88;;;3.63;;
77573;SDS011;66710;48.868;9.080;2023-09-30T03:43:03;7.63;;;3.90;;
77573;SDS011;66710;48.868;9.080;2023-09-30T03:45:30;7.40;;;3.63;;
77573;SDS011;66710;48.868;9.080;2023-09-30T03:47:57;5.90;;;3.25;;
77573;SDS011;66710;48.868;9.080;2023-09-30T03:50:22;7.30;;;3.28;;
77573;SDS011;66710;48.868;9.080;2023-09-30T03:52:49;6.05;;;3.35;;
77573;SDS011;66710;48.868;9.080;2023-09-30T03:55:15;7.85;;;3.60;;
77573;SDS011;66710;48.868;9.080;2023-09-30T03:57:42;7.28;;;4.13;;
77573;SDS011;66710;48.868;9.080;2023-09-30T04:00:08;7.28;;;3.78;;
77573;SDS011;66710;48.868;9.080;2023-09-30T04:02:36;7.00;;;3.40;;
77573;SDS011;66710;48.868;9.080;2023-09-30T04:05:01;8.02;;;3.90;;
77573;SDS011;66710;48.868;9.080;2023-09-30T04:07:30;7.85;;;4.00;;
77573;SDS011;66710;48.868;9.080;2023-09-30T04:09:55;8.38;;;4.00;;
77573;SDS011;66710;48.868;9.080;2023-09-30T04:12:21;8.10;;;3.92;;
77573;SDS011;66710;48.868;9.080;2023-09-30T04:14:48;6.63;;;3.50;;
77573;SDS011;66710;48.868;9.080;2023-09-30T04:17:14;7.40;;;4.00;;
77573;SDS011;66710;48.868;9.080;2023-09-30T04:19:39;8.68;;;3.55;;
77573;SDS011;66710;48.868;9.080;2023-09-30T04:22:04;7.68;;;3.55;;
77573;SDS011;66710;48.868;9.080;2023-09-30T04:24:30;7.50;;;3.75;;
77573;SDS011;66710;48.868;9.080;2023-09-30T04:26:55;7.05;;;3.97;;
77573;SDS011;66710;48.868;9.080;2023-09-30T04:29:27;6.78;;;3.50;;
77573;SDS011;66710;48.868;9.080;2023-09-30T04:31:52;8.02;;;3.50;;
77573;SDS011;66710;48.868;9.080;2023-09-30T04:34:18;8.10;;;3.70;;
77573;SDS011;66710;48.868;9.080;2023-09-30T04:36:44;7.63;;;3.75;;
77573;SDS011;66710;48.868;9.080;2023-09-30T04:39:10;6.75;;;3.90;;
77573;SDS011;66710;48.868;9.080;2023-09-30T04:41:37;6.80;;;3.67;;
77573;SDS011;66710;48.868;9.080;2023-09-30T04:44:06;8.60;;;3.97;;
77573;SDS011;66710;48.868;9.080;2023-09-30T04:46:31;7.57;;;3.92;;
77573;SDS011;66710;48.868;9.080;2023-09-30T04:48:57;8.23;;;4.15;;
77573;SDS011;66710;48.868;9.080;2023-09-30T04:51:22;8.05;;;3.65;;
77573;SDS011;66710;48.868;9.080;2023-09-30T04:53:50;6.65;;;3.70;;
77573;SDS011;66710;48.868;9.080;2023-09-30T04:56:16;7.20;;;3.55;;
77573;SDS011;66710;48.868;9.080;2023-09-30T04:58:41;6.50;;;3.42;;
77573;SDS011;66710;48.868;9.080;2023-09-30T05:01:07;7.00;;;4.10;;
77573;SDS011;66710;48.868;9.080;2023-09-30T05:03:33;8.55;;;4.22;;
77573;SDS011;66710;48.868;9.080;2023-09-30T05:06:00;7.18;;;4.10;;
77573;SDS011;66710;48.868;9.080;2023-09-30T05:08:25;7.00;;;3.97;;
77573;SDS011;66710;48.868;9.080;2023-09-30T05:10:51;7.22;;;3.70;;
77573;SDS011;66710;48.868;9.080;2023-09-30T05:13:16;6.65;;;3.65;;
77573;SDS011;66710;48.868;9.080;2023-09-30T05:15:42;6.78;;;3.65;;
77573;SDS011;66710;48.868;9.080;2023-09-30T05:18:08;7.93;;;3.97;;
77573;SDS011;66710;48.868;9.080;2023-09-30T05:20:34;7.55;;;3.90;;
77573;SDS011;66710;48.868;9.080;2023-09-30T05:23:02;8.68;;;4.10;;
77573;SDS011;66710;48.868;9.080;2023-09-30T05:25:27;7.80;;;3.90;;
77573;SDS011;66710;48.868;9.080;2023-09-30T05:27:53;6.88;;;3.65;;
77573;SDS011;66710;48.868;9.080;2023-09-30T05:30:19;8.15;;;4.13;;
77573;SDS011;66710;48.868;9.080;2023-09-30T05:32:45;8.20;;;3.78;;
77573;SDS011;66710;48.868;9.080;2023-09-30T05:35:11;8.13;;;3.95;;
77573;SDS011;66710;48.868;9.080;2023-09-30T05:37:41;7.78;;;4.20;;
77573;SDS011;66710;48.868;9.080;2023-09-30T05:40:07;6.50;;;4.18;;
77573;SDS011;66710;48.868;9.080;2023-09-30T05:42:54;6.45;;;3.80;;
77573;SDS011;66710;48.868;9.080;2023-09-30T05:45:23;7.78;;;4.10;;
77573;SDS011;66710;48.868;9.080;2023-09-30T05:47:49;6.93;;;4.00;;
77573;SDS011;66710;48.868;9.080;2023-09-30T05:50:31;10.00;;;4.40;;
77573;SDS011;66710;48.868;9.080;2023-09-30T05:52:59;8.73;;;4.15;;
77573;SDS011;66710;48.868;9.080;2023-09-30T05:55:25;8.15;;;4.15;;
77573;SDS011;66710;48.868;9.080;2023-09-30T05:57:50;7.75;;;4.30;;
77573;SDS011;66710;48.868;9.080;2023-09-30T06:00:19;7.35;;;3.85;;
77573;SDS011;66710;48.868;9.080;2023-09-30T06:03:04;7.97;;;4.75;;
77573;SDS011;66710;48.868;9.080;2023-09-30T06:05:31;7.05;;;4.13;;
77573;SDS011;66710;48.868;9.080;2023-09-30T06:07:57;9.02;;;4.25;;
77573;SDS011;66710;48.868;9.080;2023-09-30T06:10:24;10.25;;;4.35;;
77573;SDS011;66710;48.868;9.080;2023-09-30T06:12:51;8.80;;;4.38;;
77573;SDS011;66710;48.868;9.080;2023-09-30T06:15:20;7.57;;;4.50;;
77573;SDS011;66710;48.868;9.080;2023-09-30T06:17:51;7.75;;;4.38;;
77573;SDS011;66710;48.868;9.080;2023-09-30T06:20:17;7.90;;;4.32;;
77573;SDS011;66710;48.868;9.080;2023-09-30T06:22:46;9.13;;;4.40;;
77573;SDS011;66710;48.868;9.080;2023-09-30T06:25:14;8.80;;;4.50;;
77573;SDS011;66710;48.868;9.080;2023-09-30T06:27:41;8.50;;;4.28;;
77573;SDS011;66710;48.868;9.080;2023-09-30T06:30:10;7.70;;;4.28;;
77573;SDS011;66710;48.868;9.080;2023-09-30T06:32:36;8.60;;;4.53;;
77573;SDS011;66710;48.868;9.080;2023-09-30T06:35:04;8.52;;;4.28;;
77573;SDS011;66710;48.868;9.080;2023-09-30T06:37:31;7.57;;;4.00;;
77573;SDS011;66710;48.868;9.080;2023-09-30T06:39:57;8.95;;;4.10;;
77573;SDS011;66710;48.868;9.080;2023-09-30T06:42:23;7.22;;;4.38;;
77573;SDS011;66710;48.868;9.080;2023-09-30T06:44:49;8.32;;;4.38;;
77573;SDS011;66710;48.868;9.080;2023-09-30T06:47:15;9.80;;;4.35;;
77573;SDS011;66710;48.868;9.080;2023-09-30T06:49:41;7.50;;;4.13;;
77573;SDS011;66710;48.868;9.080;2023-09-30T06:52:06;8.30;;;4.50;;
77573;SDS011;66710;48.868;9.080;2023-09-30T06:54:32;9.25;;;4.13;;
77573;SDS011;66710;48.868;9.080;2023-09-30T06:56:57;7.43;;;4.20;;
77573;SDS011;66710;48.868;9.080;2023-09-30T06:59:23;7.97;;;4.18;;
77573;SDS011;66710;48.868;9.080;2023-09-30T07:01:50;7.57;;;4.45;;
77573;SDS011;66710;48.868;9.080;2023-09-30T07:04:15;9.55;;;4.82;;
77573;SDS011;66710;48.868;9.080;2023-09-30T07:06:40;7.10;;;4.22;;
77573;SDS011;66710;48.868;9.080;2023-09-30T07:09:06;7.75;;;4.35;;
77573;SDS011;66710;48.868;9.080;2023-09-30T07:11:31;7.25;;;4.53;;
77573;SDS011;66710;48.868;9.080;2023-09-30T07:13:59;9.70;;;4.60;;
77573;SDS011;66710;48.868;9.080;2023-09-30T07:16:25;9.05;;;4.63;;
77573;SDS011;66710;48.868;9.080;2023-09-30T07:18:50;7.85;;;4.38;;
77573;SDS011;66710;48.868;9.080;2023-09-30T07:21:16;8.93;;;5.20;;
77573;SDS011;66710;48.868;9.080;2023-09-30T07:23:41;8.25;;;4.45;;
77573;SDS011;66710;48.868;9.080;2023-09-30T07:26:07;10.20;;;4.57;;
77573;SDS011;66710;48.868;9.080;2023-09-30T07:28:32;9.43;;;4.78;;
77573;SDS011;66710;48.868;9.080;2023-09-30T07:30:58;7.90;;;4.57;;
77573;SDS011;66710;48.868;9.080;2023-09-30T07:33:23;8.55;;;4.80;;
77573;SDS011;66710;48.868;9.080;2023-09-30T07:35:48;10.18;;;4.93;;
77573;SDS011;66710;48.868;9.080;2023-09-30T07:38:14;11.10;;;4.70;;
77573;SDS011;66710;48.868;9.080;2023-09-30T07:40:39;9.07;;;4.43;;
77573;SDS011;66710;48.868;9.080;2023-09-30T07:43:05;12.05;;;4.88;;
77573;SDS011;66710;48.868;9.080;2023-09-30T07:45:30;12.00;;;4.82;;
77573;SDS011;66710;48.868;9.080;2023-09-30T07:47:56;7.72;;;4.45;;
77573;SDS011;66710;48.868;9.080;2023-09-30T07:50:23;12.43;;;4.53;;
77573;SDS011;66710;48.868;9.080;2023-09-30T07:52:48;8.57;;;4.03;;
77573;SDS011;66710;48.868;9.080;2023-09-30T07:55:14;7.10;;;4.03;;
77573;SDS011;66710;48.868;9.080;2023-09-30T07:57:40;7.40;;;3.75;;
77573;SDS011;66710;48.868;9.080;2023-09-30T08:00:07;8.07;;;4.28;;
77573;SDS011;66710;48.868;9.080;2023-09-30T08:02:35;7.82;;;3.90;;
77573;SDS011;66710;48.868;9.080;2023-09-30T08:05:01;8.20;;;3.83;;
77573;SDS011;66710;48.868;9.080;2023-09-30T08:07:27;9.68;;;4.05;;
77573;SDS011;66710;48.868;9.080;2023-09-30T08:09:52;7.07;;;4.20;;
77573;SDS011;66710;48.868;9.080;2023-09-30T08:12:18;8.07;;;3.83;;
77573;SDS011;66710;48.868;9.080;2023-09-30T08:14:44;8.27;;;3.80;;
77573;SDS011;66710;48.868;9.080;2023-09-30T08:17:10;8.25;;;3.90;;
77573;SDS011;66710;48.868;9.080;2023-09-30T08:19:36;6.97;;;3.30;;
77573;SDS011;66710;48.868;9.080;2023-09-30T08:22:01;7.95;;;3.40;;
77573;SDS011;66710;48.868;9.080;2023-09-30T08:24:28;6.45;;;3.40;;
77573;SDS011;66710;48.868;9.080;2023-09-30T08:26:54;6.32;;;3.20;;
77573;SDS011;66710;48.868;9.080;2023-09-30T08:29:20;9.75;;;3.63;;
77573;SDS011;66710;48.868;9.080;2023-09-30T08:31:46;9.07;;;3.50;;
77573;SDS011;66710;48.868;9.080;2023-09-30T08:34:11;8.50;;;3.58;;
77573;SDS011;66710;48.868;9.080;2023-09-30T08:36:39;7.63;;;3.72;;
77573;SDS011;66710;48.868;9.080;2023-09-30T08:39:04;8.05;;;3.50;;
77573;SDS011;66710;48.868;9.080;2023-09-30T08:41:31;7.65;;;3.70;;
77573;SDS011;66710;48.868;9.080;2023-09-30T08:43:59;9.02;;;3.80;;
77573;SDS011;66710;48.868;9.080;2023-09-30T08:46:27;6.15;;;3.38;;
77573;SDS011;66710;48.868;9.080;2023-09-30T08:48:56;8.30;;;3.25;;
77573;SDS011;66710;48.868;9.080;2023-09-30T08:51:23;10.23;;;3.40;;
77573;SDS011;66710;48.868;9.080;2023-09-30T08:53:48;6.82;;;3.38;;
77573;SDS011;66710;48.868;9.080;2023-09-30T08:56:15;7.57;;;3.78;;
77573;SDS011;66710;48.868;9.080;2023-09-30T08:58:41;9.43;;;3.72;;
77573;SDS011;66710;48.868;9.080;2023-09-30T09:01:07;9.52;;;3.50;;
77573;SDS011;66710;48.868;9.080;2023-09-30T09:03:34;10.00;;;3.60;;
77573;SDS011;66710;48.868;9.080;2023-09-30T09:06:01;6.68;;;3.45;;
77573;SDS011;66710;48.868;9.080;2023-09-30T09:08:27;6.47;;;3.20;;
77573;SDS011;66710;48.868;9.080;2023-09-30T09:10:59;6.43;;;3.28;;
77573;SDS011;66710;48.868;9.080;2023-09-30T09:13:25;8.07;;;3.30;;
77573;SDS011;66710;48.868;9.080;2023-09-30T09:16:07;7.90;;;3.90;;
77573;SDS011;66710;48.868;9.080;2023-09-30T09:18:34;8.80;;;3.70;;
77573;SDS011;66710;48.868;9.080;2023-09-30T09:21:13;7.55;;;3.80;;
77573;SDS011;66710;48.868;9.080;2023-09-30T09:23:45;6.72;;;3.55;;
77573;SDS011;66710;48.868;9.080;2023-09-30T09:26:33;7.28;;;3.70;;
77573;SDS011;66710;48.868;9.080;2023-09-30T09:29:00;7.43;;;3.30;;
77573;SDS011;66710;48.868;9.080;2023-09-30T09:31:28;8.60;;;3.80;;
77573;SDS011;66710;48.868;9.080;2023-09-30T09:33:54;7.65;;;3.80;;
77573;SDS011;66710;48.868;9.080;2023-09-30T09:36:37;7.30;;;3.80;;
77573;SDS011;66710;48.868;9.080;2023-09-30T09:39:05;7.38;;;3.70;;
77573;SDS011;66710;48.868;9.080;2023-09-30T09:41:30;7.38;;;3.45;;
77573;SDS011;66710;48.868;9.080;2023-09-30T09:43:55;6.68;;;3.58;;
77573;SDS011;66710;48.868;9.080;2023-09-30T09:46:24;7.53;;;3.42;;
77573;SDS011;66710;48.868;9.080;2023-09-30T09:48:50;7.70;;;3.50;;
77573;SDS011;66710;48.868;9.080;2023-09-30T09:51:18;6.80;;;3.53;;
77573;SDS011;66710;48.868;9.080;2023-09-30T09:53:45;6.65;;;3.33;;
77573;SDS011;66710;48.868;9.080;2023-09-30T09:56:13;7.22;;;3.38;;
77573;SDS011;66710;48.868;9.080;2023-09-30T09:58:40;6.03;;;3.03;;
77573;SDS011;66710;48.868;9.080;2023-09-30T10:01:09;6.70;;;3.42;;
77573;SDS011;66710;48.868;9.080;2023-09-30T10:03:35;7.95;;;3.47;;
77573;SDS011;66710;48.868;9.080;2023-09-30T10:06:01;6.60;;;3.20;;
77573;SDS011;66710;48.868;9.080;2023-09-30T10:08:28;7.97;;;3.30;;
77573;SDS011;66710;48.868;9.080;2023-09-30T10:10:58;6.43;;;3.20;;
77573;SDS011;66710;48.868;9.080;2023-09-30T10:19:09;6.05;;;3.00;;
77573;SDS011;66710;48.868;9.080;2023-09-30T10:21:36;7.70;;;3.67;;
77573;SDS011;66710;48.868;9.080;2023-09-30T10:35:16;9.57;;;3.42;;
77573;SDS011;66710;48.868;9.080;2023-09-30T10:37:42;5.72;;;2.92;;
77573;SDS011;66710;48.868;9.080;2023-09-30T10:40:08;6.43;;;3.40;;
77573;SDS011;66710;48.868;9.080;2023-09-30T10:42:50;6.13;;;3.33;;
77573;SDS011;66710;48.868;9.080;2023-09-30T10:50:57;7.43;;;3.70;;
77573;SDS011;66710;48.868;9.080;2023-09-30T10:53:27;7.55;;;3.42;;
77573;SDS011;66710;48.868;9.080;2023-09-30T10:55:57;8.38;;;3.80;;
77573;SDS011;66710;48.868;9.080;2023-09-30T11:01:15;6.13;;;3.30;;
77573;SDS011;66710;48.868;9.080;2023-09-30T11:03:42;7.45;;;3.65;;
77573;SDS011;66710;48.868;9.080;2023-09-30T11:06:10;7.05;;;3.55;;
77573;SDS011;66710;48.868;9.080;2023-09-30T11:08:39;7.10;;;3.60;;
77573;SDS011;66710;48.868;9.080;2023-09-30T11:11:10;8.03;;;3.67;;
77573;SDS011;66710;48.868;9.080;2023-09-30T11:13:35;9.52;;;4.38;;
77573;SDS011;66710;48.868;9.080;2023-09-30T11:16:04;7.47;;;3.47;;
77573;SDS011;66710;48.868;9.080;2023-09-30T11:18:29;7.68;;;3.38;;
77573;SDS011;66710;48.868;9.080;2023-09-30T11:21:29;10.30;;;3.60;;
77573;SDS011;66710;48.868;9.080;2023-09-30T11:23:48;7.38;;;3.60;;
77573;SDS011;66710;48.868;9.080;2023-09-30T11:26:13;6.05;;;3.05;;
77573;SDS011;66710;48.868;9.080;2023-09-30T11:28:39;7.57;;;3.72;;
77573;SDS011;66710;48.868;9.080;2023-09-30T11:31:07;8.32;;;3.40;;
77573;SDS011;66710;48.868;9.080;2023-09-30T11:33:46;7.13;;;3.13;;
77573;SDS011;66710;48.868;9.080;2023-09-30T11:36:14;6.40;;;3.35;;
77573;SDS011;66710;48.868;9.080;2023-09-30T11:38:43;6.32;;;3.58;;
77573;SDS011;66710;48.868;9.080;2023-09-30T11:41:10;7.53;;;3.60;;
77573;SDS011;66710;48.868;9.080;2023-09-30T11:43:35;7.03;;;3.83;;
77573;SDS011;66710;48.868;9.080;2023-09-30T11:46:11;6.93;;;3.70;;
77573;SDS011;66710;48.868;9.080;2023-09-30T11:48:38;6.97;;;3.35;;
77573;SDS011;66710;48.868;9.080;2023-09-30T11:51:05;7.50;;;3.28;;
77573;SDS011;66710;48.868;9.080;2023-09-30T11:53:31;7.38;;;3.22;;
77573;SDS011;66710;48.868;9.080;2023-09-30T11:56:00;7.68;;;3.40;;
77573;SDS011;66710;48.868;9.080;2023-09-30T11:58:27;7.13;;;3.35;;
77573;SDS011;66710;48.868;9.080;2023-09-30T12:00:54;7.60;;;3.42;;
77573;SDS011;66710;48.868;9.080;2023-09-30T12:03:19;8.65;;;3.83;;
77573;SDS011;66710;48.868;9.080;2023-09-30T12:05:45;7.07;;;3.63;;
77573;SDS011;66710;48.868;9.080;2023-09-30T12:08:11;7.28;;;3.80;;
77573;SDS011;66710;48.868;9.080;2023-09-30T12:10:36;8.68;;;3.75;;
77573;SDS011;66710;48.868;9.080;2023-09-30T12:13:02;7.28;;;3.50;;
77573;SDS011;66710;48.868;9.080;2023-09-30T12:15:27;8.32;;;3.70;;
77573;SDS011;66710;48.868;9.080;2023-09-30T12:17:52;7.95;;;3.60;;
77573;SDS011;66710;48.868;9.080;2023-09-30T12:20:18;7.65;;;3.80;;
77573;SDS011;66710;48.868;9.080;2023-09-30T12:22:43;7.93;;;3.83;;
77573;SDS011;66710;48.868;9.080;2023-09-30T12:25:08;9.40;;;4.18;;
77573;SDS011;66710;48.868;9.080;2023-09-30T12:27:34;8.68;;;4.15;;
77573;SDS011;66710;48.868;9.080;2023-09-30T12:29:59;8.73;;;4.18;;
77573;SDS011;66710;48.868;9.080;2023-09-30T12:32:25;7.75;;;3.47;;
77573;SDS011;66710;48.868;9.080;2023-09-30T12:34:51;8.95;;;3.80;;
77573;SDS011;66710;48.868;9.080;2023-09-30T12:37:17;9.02;;;3.50;;
77573;SDS011;66710;48.868;9.080;2023-09-30T12:39:43;8.00;;;3.45;;
77573;SDS011;66710;48.868;9.080;2023-09-30T12:42:10;7.82;;;3.40;;
77573;SDS011;66710;48.868;9.080;2023-09-30T12:44:37;9.20;;;4.13;;
77573;SDS011;66710;48.868;9.080;2023-09-30T12:47:03;10.00;;;3.67;;
77573;SDS011;66710;48.868;9.080;2023-09-30T12:49:30;8.18;;;3.70;;
77573;SDS011;66710;48.868;9.080;2023-09-30T12:51:55;7.05;;;3.30;;
77573;SDS011;66710;48.868;9.080;2023-09-30T12:54:22;6.38;;;3.50;;
77573;SDS011;66710;48.868;9.080;2023-09-30T12:56:48;8.27;;;4.05;;
77573;SDS011;66710;48.868;9.080;2023-09-30T12:59:15;9.98;;;4.60;;
77573;SDS011;66710;48.868;9.080;2023-09-30T13:01:42;6.60;;;3.67;;
77573;SDS011;66710;48.868;9.080;2023-09-30T13:04:07;7.40;;;3.58;;
77573;SDS011;66710;48.868;9.080;2023-09-30T13:06:33;9.18;;;3.97;;
77573;SDS011;66710;48.868;9.080;2023-09-30T13:09:00;6.82;;;4.30;;
77573;SDS011;66710;48.868;9.080;2023-09-30T13:11:26;8.05;;;3.75;;
77573;SDS011;66710;48.868;9.080;2023-09-30T13:13:51;7.55;;;4.25;;
77573;SDS011;66710;48.868;9.080;2023-09-30T13:16:17;8.45;;;3.63;;
77573;SDS011;66710;48.868;9.080;2023-09-30T13:18:42;6.30;;;3.40;;
77573;SDS011;66710;48.868;9.080;2023-09-30T13:21:07;8.50;;;3.60;;
77573;SDS011;66710;48.868;9.080;2023-09-30T13:23:34;7.90;;;4.22;;
77573;SDS011;66710;48.868;9.080;2023-09-30T13:26:00;7.25;;;3.75;;
77573;SDS011;66710;48.868;9.080;2023-09-30T13:28:26;10.55;;;4.07;;
77573;SDS011;66710;48.868;9.080;2023-09-30T13:30:53;8.25;;;3.72;;
77573;SDS011;66710;48.868;9.080;2023-09-30T13:33:18;7.72;;;3.75;;
77573;SDS011;66710;48.868;9.080;2023-09-30T13:35:45;9.35;;;4.03;;
77573;SDS011;66710;48.868;9.080;2023-09-30T13:38:11;7.38;;;3.97;;
77573;SDS011;66710;48.868;9.080;2023-09-30T13:40:36;6.82;;;3.80;;
77573;SDS011;66710;48.868;9.080;2023-09-30T13:43:03;7.65;;;3.53;;
77573;SDS011;66710;48.868;9.080;2023-09-30T13:45:29;7.95;;;3.55;;
77573;SDS011;66710;48.868;9.080;2023-09-30T13:47:55;6.55;;;3.55;;
77573;SDS011;66710;48.868;9.080;2023-09-30T13:50:20;6.97;;;3.85;;
77573;SDS011;66710;48.868;9.080;2023-09-30T13:52:46;7.93;;;3.55;;
77573;SDS011;66710;48.868;9.080;2023-09-30T13:55:11;7.03;;;3.67;;
77573;SDS011;66710;48.868;9.080;2023-09-30T13:57:43;7.70;;;3.60;;
77573;SDS011;66710;48.868;9.080;2023-09-30T14:00:08;11.00;;;4.32;;
77573;SDS011;66710;48.868;9.080;2023-09-30T14:02:35;7.50;;;3.55;;
77573;SDS011;66710;48.868;9.080;2023-09-30T14:05:01;10.38;;;3.83;;
77573;SDS011;66710;48.868;9.080;2023-09-30T14:07:26;7.28;;;3.83;;
77573;SDS011;66710;48.868;9.080;2023-09-30T14:09:53;7.32;;;3.80;;
77573;SDS011;66710;48.868;9.080;2023-09-30T14:12:18;8.60;;;3.80;;
77573;SDS011;66710;48.868;9.080;2023-09-30T14:14:43;8.05;;;3.63;;
77573;SDS011;66710;48.868;9.080;2023-09-30T14:17:09;10.65;;;3.88;;
77573;SDS011;66710;48.868;9.080;2023-09-30T14:19:39;8.23;;;3.33;;
77573;SDS011;66710;48.868;9.080;2023-09-30T14:22:05;6.95;;;3.38;;
77573;SDS011;66710;48.868;9.080;2023-09-30T14:24:33;7.07;;;3.22;;
77573;SDS011;66710;48.868;9.080;2023-09-30T14:26:58;7.18;;;3.75;;
77573;SDS011;66710;48.868;9.080;2023-09-30T14:29:23;7.97;;;3.42;;
77573;SDS011;66710;48.868;9.080;2023-09-30T14:31:49;8.35;;;3.88;;
77573;SDS011;66710;48.868;9.080;2023-09-30T14:34:15;7.53;;;3.88;;
77573;SDS011;66710;48.868;9.080;2023-09-30T14:36:40;9.02;;;3.50;;
77573;SDS011;66710;48.868;9.080;2023-09-30T14:39:05;7.88;;;3.80;;
77573;SDS011;66710;48.868;9.080;2023-09-30T14:41:30;8.50;;;3.78;;
77573;SDS011;66710;48.868;9.080;2023-09-30T14:43:57;8.00;;;3.70;;
77573;SDS011;66710;48.868;9.080;2023-09-30T14:46:23;7.32;;;3.75;;
77573;SDS011;66710;48.868;9.080;2023-09-30T14:48:48;7.85;;;3.50;;
77573;SDS011;66710;48.868;9.080;2023-09-30T14:51:15;7.25;;;3.60;;
77573;SDS011;66710;48.868;9.080;2023-09-30T14:53:40;8.02;;;3.70;;
77573;SDS011;66710;48.868;9.080;2023-09-30T14:56:14;10.15;;;3.75;;
77573;SDS011;66710;48.868;9.080;2023-09-30T14:58:41;7.82;;;3.70;;
77573;SDS011;66710;48.868;9.080;2023-09-30T15:01:09;10.73;;;5.03;;
77573;SDS011;66710;48.868;9.080;2023-09-30T15:03:35;9.82;;;4.50;;
77573;SDS011;66710;48.868;9.080;2023-09-30T15:06:02;8.05;;;3.90;;
77573;SDS011;66710;48.868;9.080;2023-09-30T15:08:29;8.45;;;4.10;;
77573;SDS011;66710;48.868;9.080;2023-09-30T15:10:54;7.20;;;3.88;;